Aviation Digital Data Service (ADDS)

Output produced by METARs form (2304 UTC 20 January 2019)
found at http://www.aviationweather.gov/metar/data/
 
METAR text: LEBB 202230Z 31004KT 260V340 9999 FEW022 SCT035 BKN050 08/06 Q1020 TEMPO RA
Conditions at: LEBB (BILBAO/SONDICA , ES) observed 2230 UTC 20 January 2019
Temperature: 8.0°C (46°F)
Dewpoint: 6.0°C (43°F) [RH = 87%]
Pressure (altimeter): 30.12 inches Hg (1020.0 mb)
Winds: from the NW (310 degrees) at 5 MPH (4 knots; 2.1 m/s)
Visibility: 6 or more miles (10+ km)
Ceiling: 5000 feet AGL
Clouds: few clouds at 2200 feet AGL
scattered clouds at 3500 feet AGL
broken clouds at 5000 feet AGL
Weather: no significant weather observed at this time

METAR text: LEBB 202200Z 35013G23KT 300V020 9999 RA FEW020 SCT030 BKN045 08/08 Q1020 NOSIG
Conditions at: LEBB (BILBAO/SONDICA , ES) observed 2200 UTC 20 January 2019
Temperature: 8.0°C (46°F)
Dewpoint: 8.0°C (46°F) [RH = 100%]
Pressure (altimeter): 30.12 inches Hg (1020.0 mb)
Winds: from the N (350 degrees) at 15 MPH (13 knots; 6.7 m/s)
gusting to 26 MPH (23 knots; 11.8 m/s)
Visibility: 6 or more miles (10+ km)
Ceiling: 4500 feet AGL
Clouds: few clouds at 2000 feet AGL
scattered clouds at 3000 feet AGL
broken clouds at 4500 feet AGL
Weather: RA  (moderate rain)

METAR text: LEBB 202130Z VRB01KT 9999 FEW024 SCT035 BKN050 07/06 Q1020 TEMPO RA
Conditions at: LEBB (BILBAO/SONDICA , ES) observed 2130 UTC 20 January 2019
Temperature: 7.0°C (45°F)
Dewpoint: 6.0°C (43°F) [RH = 93%]
Pressure (altimeter): 30.12 inches Hg (1020.0 mb)
Winds: variable direction winds at 1 MPH (1 knots; 0.5 m/s)
Visibility: 6 or more miles (10+ km)
Ceiling: 5000 feet AGL
Clouds: few clouds at 2400 feet AGL
scattered clouds at 3500 feet AGL
broken clouds at 5000 feet AGL
Weather: no significant weather observed at this time

METAR text: LEBB 202100Z 00000KT 9999 FEW024 SCT035 BKN050 07/07 Q1020 TEMPO RA
Conditions at: LEBB (BILBAO/SONDICA , ES) observed 2100 UTC 20 January 2019
Temperature: 7.0°C (45°F)
Dewpoint: 7.0°C (45°F) [RH = 100%]
Pressure (altimeter): 30.12 inches Hg (1020.0 mb)
Winds: calm
Visibility: 6 or more miles (10+ km)
Ceiling: 5000 feet AGL
Clouds: few clouds at 2400 feet AGL
scattered clouds at 3500 feet AGL
broken clouds at 5000 feet AGL
Weather: no significant weather observed at this time

METAR text: LEBB 202030Z 00000KT 9999 FEW024 SCT035 BKN050 08/07 Q1019 TEMPO RA
Conditions at: LEBB (BILBAO/SONDICA , ES) observed 2030 UTC 20 January 2019
Temperature: 8.0°C (46°F)
Dewpoint: 7.0°C (45°F) [RH = 93%]
Pressure (altimeter): 30.09 inches Hg (1019.0 mb)
Winds: calm
Visibility: 6 or more miles (10+ km)
Ceiling: 5000 feet AGL
Clouds: few clouds at 2400 feet AGL
scattered clouds at 3500 feet AGL
broken clouds at 5000 feet AGL
Weather: no significant weather observed at this time

METAR text: LEBB 202000Z VRB03KT 9999 SCT024TCU SCT030 BKN040 08/06 Q1019 TEMPO 3000 SHRA BKN020TCU
Conditions at: LEBB (BILBAO/SONDICA , ES) observed 2000 UTC 20 January 2019
Temperature: 8.0°C (46°F)
Dewpoint: 6.0°C (43°F) [RH = 87%]
Pressure (altimeter): 30.09 inches Hg (1019.0 mb)
Winds: variable direction winds at 3 MPH (3 knots; 1.5 m/s)
Visibility: 6 or more miles (10+ km)
Ceiling: 4000 feet AGL
Clouds: scattered clouds at 2400 feet AGL
scattered clouds at 3000 feet AGL
broken clouds at 4000 feet AGL
Weather: no significant weather observed at this time

METAR text: LEBB 201930Z 03006KT 330V100 8000 SCT024TCU SCT030 BKN040 09/07 Q1019 TEMPO 3000 SHRA BKN020TCU
Conditions at: LEBB (BILBAO/SONDICA , ES) observed 1930 UTC 20 January 2019
Temperature: 9.0°C (48°F)
Dewpoint: 7.0°C (45°F) [RH = 87%]
Pressure (altimeter): 30.09 inches Hg (1019.0 mb)
Winds: from the NNE (30 degrees) at 7 MPH (6 knots; 3.1 m/s)
Visibility: 5 miles ( 8 km)
Ceiling: 4000 feet AGL
Clouds: scattered clouds at 2400 feet AGL
scattered clouds at 3000 feet AGL
broken clouds at 4000 feet AGL
Weather: no significant weather observed at this time

METAR text: LEBB 201900Z VRB01KT 9999 SCT024TCU SCT030 BKN050 08/07 Q1018 TEMPO 3000 SHRA BKN020TCU
Conditions at: LEBB (BILBAO/SONDICA , ES) observed 1900 UTC 20 January 2019
Temperature: 8.0°C (46°F)
Dewpoint: 7.0°C (45°F) [RH = 93%]
Pressure (altimeter): 30.06 inches Hg (1018.0 mb)
Winds: variable direction winds at 1 MPH (1 knots; 0.5 m/s)
Visibility: 6 or more miles (10+ km)
Ceiling: 5000 feet AGL
Clouds: scattered clouds at 2400 feet AGL
scattered clouds at 3000 feet AGL
broken clouds at 5000 feet AGL
Weather: no significant weather observed at this time

METAR text: LEBB 201830Z 01003KT 320V050 9999 SCT024TCU SCT030 BKN050 09/07 Q1018 TEMPO 3000 SHRA BKN020TCU
Conditions at: LEBB (BILBAO/SONDICA , ES) observed 1830 UTC 20 January 2019
Temperature: 9.0°C (48°F)
Dewpoint: 7.0°C (45°F) [RH = 87%]
Pressure (altimeter): 30.06 inches Hg (1018.0 mb)
Winds: from the N (10 degrees) at 3 MPH (3 knots; 1.5 m/s)
Visibility: 6 or more miles (10+ km)
Ceiling: 5000 feet AGL
Clouds: scattered clouds at 2400 feet AGL
scattered clouds at 3000 feet AGL
broken clouds at 5000 feet AGL
Weather: no significant weather observed at this time

METAR text: LEBB 201800Z 34003KT 290V030 9999 SCT024TCU SCT030 BKN050 09/07 Q1018 TEMPO 3000 SHRA BKN020TCU
Conditions at: LEBB (BILBAO/SONDICA , ES) observed 1800 UTC 20 January 2019
Temperature: 9.0°C (48°F)
Dewpoint: 7.0°C (45°F) [RH = 87%]
Pressure (altimeter): 30.06 inches Hg (1018.0 mb)
Winds: from the NNW (340 degrees) at 3 MPH (3 knots; 1.5 m/s)
Visibility: 6 or more miles (10+ km)
Ceiling: 5000 feet AGL
Clouds: scattered clouds at 2400 feet AGL
scattered clouds at 3000 feet AGL
broken clouds at 5000 feet AGL
Weather: no significant weather observed at this time

METAR text: LEBB 201730Z 36005KT 330V030 9999 SCT024TCU SCT030 BKN040 10/07 Q1018 TEMPO 3000 SHRA BKN020TCU
Conditions at: LEBB (BILBAO/SONDICA , ES) observed 1730 UTC 20 January 2019
Temperature: 10.0°C (50°F)
Dewpoint: 7.0°C (45°F) [RH = 82%]
Pressure (altimeter): 30.06 inches Hg (1018.0 mb)
Winds: from the N (360 degrees) at 6 MPH (5 knots; 2.6 m/s)
Visibility: 6 or more miles (10+ km)
Ceiling: 4000 feet AGL
Clouds: scattered clouds at 2400 feet AGL
scattered clouds at 3000 feet AGL
broken clouds at 4000 feet AGL
Weather: no significant weather observed at this time

METAR text: LEBB 201700Z 02005KT 320V070 9999 SCT024TCU SCT030 BKN040 10/07 Q1017 RESHRA TEMPO 3000 SHRA BKN020TCU
Conditions at: LEBB (BILBAO/SONDICA , ES) observed 1700 UTC 20 January 2019
Temperature: 10.0°C (50°F)
Dewpoint: 7.0°C (45°F) [RH = 82%]
Pressure (altimeter): 30.03 inches Hg (1017.0 mb)
Winds: from the NNE (20 degrees) at 6 MPH (5 knots; 2.6 m/s)
Visibility: 6 or more miles (10+ km)
Ceiling: 4000 feet AGL
Clouds: scattered clouds at 2400 feet AGL
scattered clouds at 3000 feet AGL
broken clouds at 4000 feet AGL
Weather: no significant weather observed at this time

METAR text: LEBB 201642Z VRB01KT 9999 SHRA SCT024TCU SCT030 09/08 Q1017 NOSIG
Conditions at: LEBB (BILBAO/SONDICA , ES) observed 1642 UTC 20 January 2019
Temperature: 9.0°C (48°F)
Dewpoint: 8.0°C (46°F) [RH = 93%]
Pressure (altimeter): 30.03 inches Hg (1017.0 mb)
Winds: variable direction winds at 1 MPH (1 knots; 0.5 m/s)
Visibility: 6 or more miles (10+ km)
Ceiling: at least 12,000 feet AGL
Clouds: scattered clouds at 2400 feet AGL
scattered clouds at 3000 feet AGL
Weather: SHRA  (rain showers)

METAR text: LEBB 201630Z 34003KT 310V020 9999 SCT024TCU SCT030 09/07 Q1017 TEMPO 3000 SHRA BKN020TCU
Conditions at: LEBB (BILBAO/SONDICA , ES) observed 1630 UTC 20 January 2019
Temperature: 9.0°C (48°F)
Dewpoint: 7.0°C (45°F) [RH = 87%]
Pressure (altimeter): 30.03 inches Hg (1017.0 mb)
Winds: from the NNW (340 degrees) at 3 MPH (3 knots; 1.5 m/s)
Visibility: 6 or more miles (10+ km)
Ceiling: at least 12,000 feet AGL
Clouds: scattered clouds at 2400 feet AGL
scattered clouds at 3000 feet AGL
Weather: no significant weather observed at this time

METAR text: LEBB 201600Z 33008KT 270V010 9999 -SHRA SCT024TCU BKN040 09/06 Q1017 NOSIG
Conditions at: LEBB (BILBAO/SONDICA , ES) observed 1600 UTC 20 January 2019
Temperature: 9.0°C (48°F)
Dewpoint: 6.0°C (43°F) [RH = 81%]
Pressure (altimeter): 30.03 inches Hg (1017.0 mb)
Winds: from the NNW (330 degrees) at 9 MPH (8 knots; 4.1 m/s)
Visibility: 6 or more miles (10+ km)
Ceiling: 4000 feet AGL
Clouds: scattered clouds at 2400 feet AGL
broken clouds at 4000 feet AGL
Weather: -SHRA  (light rain showers)

METAR text: LEBB 201549Z 31007KT 260V010 8000 SHRA SCT024TCU BKN040 11/08 Q1017 NOSIG
Conditions at: LEBB (BILBAO/SONDICA , ES) observed 1549 UTC 20 January 2019
Temperature: 11.0°C (52°F)
Dewpoint: 8.0°C (46°F) [RH = 82%]
Pressure (altimeter): 30.03 inches Hg (1017.0 mb)
Winds: from the NW (310 degrees) at 8 MPH (7 knots; 3.6 m/s)
Visibility: 5 miles ( 8 km)
Ceiling: 4000 feet AGL
Clouds: scattered clouds at 2400 feet AGL
broken clouds at 4000 feet AGL
Weather: SHRA  (rain showers)

METAR text: LEBB 201530Z 31004KT 270V340 9999 SCT024TCU SCT050 10/08 Q1017 TEMPO 3000 SHRA BKN020TCU
Conditions at: LEBB (BILBAO/SONDICA , ES) observed 1530 UTC 20 January 2019
Temperature: 10.0°C (50°F)
Dewpoint: 8.0°C (46°F) [RH = 87%]
Pressure (altimeter): 30.03 inches Hg (1017.0 mb)
Winds: from the NW (310 degrees) at 5 MPH (4 knots; 2.1 m/s)
Visibility: 6 or more miles (10+ km)
Ceiling: at least 12,000 feet AGL
Clouds: scattered clouds at 2400 feet AGL
scattered clouds at 5000 feet AGL
Weather: no significant weather observed at this time

METAR text: LEBB 201500Z 01008KT 9999 SCT024TCU SCT034 09/07 Q1016 RESHRA TEMPO 3000 SHRA BKN020TCU
Conditions at: LEBB (BILBAO/SONDICA , ES) observed 1500 UTC 20 January 2019
Temperature: 9.0°C (48°F)
Dewpoint: 7.0°C (45°F) [RH = 87%]
Pressure (altimeter): 30.00 inches Hg (1016.0 mb)
Winds: from the N (10 degrees) at 9 MPH (8 knots; 4.1 m/s)
Visibility: 6 or more miles (10+ km)
Ceiling: at least 12,000 feet AGL
Clouds: scattered clouds at 2400 feet AGL
scattered clouds at 3400 feet AGL
Weather: no significant weather observed at this time

METAR text: LEBB 201430Z 35008KT 320V060 8000 SHRA SCT024TCU SCT034 BKN040 09/07 Q1016 NOSIG
Conditions at: LEBB (BILBAO/SONDICA , ES) observed 1430 UTC 20 January 2019
Temperature: 9.0°C (48°F)
Dewpoint: 7.0°C (45°F) [RH = 87%]
Pressure (altimeter): 30.00 inches Hg (1016.0 mb)
Winds: from the N (350 degrees) at 9 MPH (8 knots; 4.1 m/s)
Visibility: 5 miles ( 8 km)
Ceiling: 4000 feet AGL
Clouds: scattered clouds at 2400 feet AGL
scattered clouds at 3400 feet AGL
broken clouds at 4000 feet AGL
Weather: SHRA  (rain showers)

METAR text: LEBB 201416Z 04013G26KT 360V070 4000 SHRA SCT024TCU SCT034 BKN040 10/06 Q1016 NOSIG
Conditions at: LEBB (BILBAO/SONDICA , ES) observed 1416 UTC 20 January 2019
Temperature: 10.0°C (50°F)
Dewpoint: 6.0°C (43°F) [RH = 76%]
Pressure (altimeter): 30.00 inches Hg (1016.0 mb)
Winds: from the NE (40 degrees) at 15 MPH (13 knots; 6.7 m/s)
gusting to 30 MPH (26 knots; 13.4 m/s)
Visibility: 2.49 miles (4.01 km)
Ceiling: 4000 feet AGL
Clouds: scattered clouds at 2400 feet AGL
scattered clouds at 3400 feet AGL
broken clouds at 4000 feet AGL
Weather: SHRA  (rain showers)

METAR text: LEBB 201400Z 02007KT 340V050 9999 SCT024TCU SCT034 BKN040 10/08 Q1016 RESHRA TEMPO 3000 SHRA BKN020TCU
Conditions at: LEBB (BILBAO/SONDICA , ES) observed 1400 UTC 20 January 2019
Temperature: 10.0°C (50°F)
Dewpoint: 8.0°C (46°F) [RH = 87%]
Pressure (altimeter): 30.00 inches Hg (1016.0 mb)
Winds: from the NNE (20 degrees) at 8 MPH (7 knots; 3.6 m/s)
Visibility: 6 or more miles (10+ km)
Ceiling: 4000 feet AGL
Clouds: scattered clouds at 2400 feet AGL
scattered clouds at 3400 feet AGL
broken clouds at 4000 feet AGL
Weather: no significant weather observed at this time

METAR text: LEBB 201330Z 32010G23KT 290V010 3000 SHRA SCT024TCU SCT034 BKN060 08/06 Q1016 NOSIG
Conditions at: LEBB (BILBAO/SONDICA , ES) observed 1330 UTC 20 January 2019
Temperature: 8.0°C (46°F)
Dewpoint: 6.0°C (43°F) [RH = 87%]
Pressure (altimeter): 30.00 inches Hg (1016.0 mb)
Winds: from the NW (320 degrees) at 12 MPH (10 knots; 5.1 m/s)
gusting to 26 MPH (23 knots; 11.8 m/s)
Visibility: 1.86 miles (2.99 km)
Ceiling: 6000 feet AGL
Clouds: scattered clouds at 2400 feet AGL
scattered clouds at 3400 feet AGL
broken clouds at 6000 feet AGL
Weather: SHRA  (rain showers)

METAR text: LEBB 201300Z 32009KT 9999 SCT016 SCT025TCU BKN050 11/08 Q1016 TEMPO 3000 SHRA BKN020TCU
Conditions at: LEBB (BILBAO/SONDICA , ES) observed 1300 UTC 20 January 2019
Temperature: 11.0°C (52°F)
Dewpoint: 8.0°C (46°F) [RH = 82%]
Pressure (altimeter): 30.00 inches Hg (1016.0 mb)
Winds: from the NW (320 degrees) at 10 MPH (9 knots; 4.6 m/s)
Visibility: 6 or more miles (10+ km)
Ceiling: 5000 feet AGL
Clouds: scattered clouds at 1600 feet AGL
scattered clouds at 2500 feet AGL
broken clouds at 5000 feet AGL
Weather: no significant weather observed at this time

METAR text: LEBB 201239Z 31013KT 9999 SCT022TCU BKN035 BKN045 10/08 Q1016 RESHRA TEMPO 3000 SHRA BKN020TCU
Conditions at: LEBB (BILBAO/SONDICA , ES) observed 1239 UTC 20 January 2019
Temperature: 10.0°C (50°F)
Dewpoint: 8.0°C (46°F) [RH = 87%]
Pressure (altimeter): 30.00 inches Hg (1016.0 mb)
Winds: from the NW (310 degrees) at 15 MPH (13 knots; 6.7 m/s)
Visibility: 6 or more miles (10+ km)
Ceiling: 3500 feet AGL
Clouds: scattered clouds at 2200 feet AGL
broken clouds at 3500 feet AGL
broken clouds at 4500 feet AGL
Weather: no significant weather observed at this time

METAR text: LEBB 201232Z 29007KT 200V330 6000 +SHRA SCT025TCU SCT035 BKN045 10/08 Q1016 TEMPO 3000 SHRA BKN020TCU
Conditions at: LEBB (BILBAO/SONDICA , ES) observed 1232 UTC 20 January 2019
Temperature: 10.0°C (50°F)
Dewpoint: 8.0°C (46°F) [RH = 87%]
Pressure (altimeter): 30.00 inches Hg (1016.0 mb)
Winds: from the WNW (290 degrees) at 8 MPH (7 knots; 3.6 m/s)
Visibility: 4 miles ( 6 km)
Ceiling: 4500 feet AGL
Clouds: scattered clouds at 2500 feet AGL
scattered clouds at 3500 feet AGL
broken clouds at 4500 feet AGL
Weather: +SHRA  (heavy rain showers)

METAR text: LEBB 201230Z 25005KT 200V290 6000 -SHRA SCT020TCU BKN045 11/09 Q1016 TEMPO 3000 SHRA BKN020TCU
Conditions at: LEBB (BILBAO/SONDICA , ES) observed 1230 UTC 20 January 2019
Temperature: 11.0°C (52°F)
Dewpoint: 9.0°C (48°F) [RH = 87%]
Pressure (altimeter): 30.00 inches Hg (1016.0 mb)
Winds: from the WSW (250 degrees) at 6 MPH (5 knots; 2.6 m/s)
Visibility: 4 miles ( 6 km)
Ceiling: 4500 feet AGL
Clouds: scattered clouds at 2000 feet AGL
broken clouds at 4500 feet AGL
Weather: -SHRA  (light rain showers)

METAR text: LEBB 201200Z 26004KT 230V290 9999 FEW042 BKN055 10/07 Q1016 TEMPO 3000 SHRA BKN020TCU
Conditions at: LEBB (BILBAO/SONDICA , ES) observed 1200 UTC 20 January 2019
Temperature: 10.0°C (50°F)
Dewpoint: 7.0°C (45°F) [RH = 82%]
Pressure (altimeter): 30.00 inches Hg (1016.0 mb)
Winds: from the W (260 degrees) at 5 MPH (4 knots; 2.1 m/s)
Visibility: 6 or more miles (10+ km)
Ceiling: 5500 feet AGL
Clouds: few clouds at 4200 feet AGL
broken clouds at 5500 feet AGL
Weather: no significant weather observed at this time

METAR text: LEBB 201130Z 31004KT 260V020 9999 FEW012 SCT025TCU BKN044 09/07 Q1016 TEMPO 3000 SHRA BKN020TCU
Conditions at: LEBB (BILBAO/SONDICA , ES) observed 1130 UTC 20 January 2019
Temperature: 9.0°C (48°F)
Dewpoint: 7.0°C (45°F) [RH = 87%]
Pressure (altimeter): 30.00 inches Hg (1016.0 mb)
Winds: from the NW (310 degrees) at 5 MPH (4 knots; 2.1 m/s)
Visibility: 6 or more miles (10+ km)
Ceiling: 4400 feet AGL
Clouds: few clouds at 1200 feet AGL
scattered clouds at 2500 feet AGL
broken clouds at 4400 feet AGL
Weather: no significant weather observed at this time

METAR text: LEBB 201118Z 33007KT 290V020 8000 -SHRA FEW012 SCT025TCU BKN040 09/07 Q1016 TEMPO 3000 SHRA BKN020TCU
Conditions at: LEBB (BILBAO/SONDICA , ES) observed 1118 UTC 20 January 2019
Temperature: 9.0°C (48°F)
Dewpoint: 7.0°C (45°F) [RH = 87%]
Pressure (altimeter): 30.00 inches Hg (1016.0 mb)
Winds: from the NNW (330 degrees) at 8 MPH (7 knots; 3.6 m/s)
Visibility: 5 miles ( 8 km)
Ceiling: 4000 feet AGL
Clouds: few clouds at 1200 feet AGL
scattered clouds at 2500 feet AGL
broken clouds at 4000 feet AGL
Weather: -SHRA  (light rain showers)

METAR text: LEBB 201114Z 34012G24KT 290V020 4000 +SHRA SCT012 BKN025TCU BKN050 09/07 Q1016 NOSIG
Conditions at: LEBB (BILBAO/SONDICA , ES) observed 1114 UTC 20 January 2019
Temperature: 9.0°C (48°F)
Dewpoint: 7.0°C (45°F) [RH = 87%]
Pressure (altimeter): 30.00 inches Hg (1016.0 mb)
Winds: from the NNW (340 degrees) at 14 MPH (12 knots; 6.2 m/s)
gusting to 28 MPH (24 knots; 12.3 m/s)
Visibility: 2.49 miles (4.01 km)
Ceiling: 2500 feet AGL
Clouds: scattered clouds at 1200 feet AGL
broken clouds at 2500 feet AGL
broken clouds at 5000 feet AGL
Weather: +SHRA  (heavy rain showers)

METAR text: LEBB 201100Z 26003KT 230V300 9999 FEW040 BKN055 10/08 Q1016 TEMPO 3000 SHRA BKN020TCU
Conditions at: LEBB (BILBAO/SONDICA , ES) observed 1100 UTC 20 January 2019
Temperature: 10.0°C (50°F)
Dewpoint: 8.0°C (46°F) [RH = 87%]
Pressure (altimeter): 30.00 inches Hg (1016.0 mb)
Winds: from the W (260 degrees) at 3 MPH (3 knots; 1.5 m/s)
Visibility: 6 or more miles (10+ km)
Ceiling: 5500 feet AGL
Clouds: few clouds at 4000 feet AGL
broken clouds at 5500 feet AGL
Weather: no significant weather observed at this time

METAR text: LEBB 201030Z 31005KT 250V350 9999 -SHRA FEW018 SCT025TCU BKN058 09/07 Q1016 TEMPO 3000 SHRA BKN020TCU
Conditions at: LEBB (BILBAO/SONDICA , ES) observed 1030 UTC 20 January 2019
Temperature: 9.0°C (48°F)
Dewpoint: 7.0°C (45°F) [RH = 87%]
Pressure (altimeter): 30.00 inches Hg (1016.0 mb)
Winds: from the NW (310 degrees) at 6 MPH (5 knots; 2.6 m/s)
Visibility: 6 or more miles (10+ km)
Ceiling: 5800 feet AGL
Clouds: few clouds at 1800 feet AGL
scattered clouds at 2500 feet AGL
broken clouds at 5800 feet AGL
Weather: -SHRA  (light rain showers)

METAR text: LEBB 201000Z 27003KT 230V310 9999 -SHRA FEW018 SCT025TCU BKN038 09/08 Q1015 TEMPO 3000 SHRA BKN020TCU
Conditions at: LEBB (BILBAO/SONDICA , ES) observed 1000 UTC 20 January 2019
Temperature: 9.0°C (48°F)
Dewpoint: 8.0°C (46°F) [RH = 93%]
Pressure (altimeter): 29.97 inches Hg (1015.0 mb)
Winds: from the W (270 degrees) at 3 MPH (3 knots; 1.5 m/s)
Visibility: 6 or more miles (10+ km)
Ceiling: 3800 feet AGL
Clouds: few clouds at 1800 feet AGL
scattered clouds at 2500 feet AGL
broken clouds at 3800 feet AGL
Weather: -SHRA  (light rain showers)

METAR text: LEBB 200930Z VRB02KT 9999 -SHRA FEW018 SCT025TCU BKN038 08/07 Q1015 TEMPO 3000 SHRA BKN020TCU
Conditions at: LEBB (BILBAO/SONDICA , ES) observed 0930 UTC 20 January 2019
Temperature: 8.0°C (46°F)
Dewpoint: 7.0°C (45°F) [RH = 93%]
Pressure (altimeter): 29.97 inches Hg (1015.0 mb)
Winds: variable direction winds at 2 MPH (2 knots; 1.0 m/s)
Visibility: 6 or more miles (10+ km)
Ceiling: 3800 feet AGL
Clouds: few clouds at 1800 feet AGL
scattered clouds at 2500 feet AGL
broken clouds at 3800 feet AGL
Weather: -SHRA  (light rain showers)

METAR text: LEBB 200923Z VRB03KT 9999 -SHRA FEW018 SCT025TCU BKN038 08/07 Q1015 NOSIG
Conditions at: LEBB (BILBAO/SONDICA , ES) observed 0923 UTC 20 January 2019
Temperature: 8.0°C (46°F)
Dewpoint: 7.0°C (45°F) [RH = 93%]
Pressure (altimeter): 29.97 inches Hg (1015.0 mb)
Winds: variable direction winds at 3 MPH (3 knots; 1.5 m/s)
Visibility: 6 or more miles (10+ km)
Ceiling: 3800 feet AGL
Clouds: few clouds at 1800 feet AGL
scattered clouds at 2500 feet AGL
broken clouds at 3800 feet AGL
Weather: -SHRA  (light rain showers)

METAR text: LEBB 200909Z 14003KT 050V180 3000 SHRA SCT014 BKN025TCU BKN042 08/07 Q1014 NOSIG
Conditions at: LEBB (BILBAO/SONDICA , ES) observed 0909 UTC 20 January 2019
Temperature: 8.0°C (46°F)
Dewpoint: 7.0°C (45°F) [RH = 93%]
Pressure (altimeter): 29.94 inches Hg (1014.0 mb)
Winds: from the SE (140 degrees) at 3 MPH (3 knots; 1.5 m/s)
Visibility: 1.86 miles (2.99 km)
Ceiling: 2500 feet AGL
Clouds: scattered clouds at 1400 feet AGL
broken clouds at 2500 feet AGL
broken clouds at 4200 feet AGL
Weather: SHRA  (rain showers)

METAR text: LEBB 200907Z VRB02KT 6000 +SHRA SCT014 BKN025TCU BKN042 08/07 Q1014 TEMPO 3000 SHRA BKN020TCU
Conditions at: LEBB (BILBAO/SONDICA , ES) observed 0907 UTC 20 January 2019
Temperature: 8.0°C (46°F)
Dewpoint: 7.0°C (45°F) [RH = 93%]
Pressure (altimeter): 29.94 inches Hg (1014.0 mb)
Winds: variable direction winds at 2 MPH (2 knots; 1.0 m/s)
Visibility: 4 miles ( 6 km)
Ceiling: 2500 feet AGL
Clouds: scattered clouds at 1400 feet AGL
broken clouds at 2500 feet AGL
broken clouds at 4200 feet AGL
Weather: +SHRA  (heavy rain showers)

METAR text: LEBB 200904Z VRB02KT 6000 SHRA FEW016 SCT025TCU BKN042 08/08 Q1014 TEMPO 3000 SHRA BKN020TCU
Conditions at: LEBB (BILBAO/SONDICA , ES) observed 0904 UTC 20 January 2019
Temperature: 8.0°C (46°F)
Dewpoint: 8.0°C (46°F) [RH = 100%]
Pressure (altimeter): 29.94 inches Hg (1014.0 mb)
Winds: variable direction winds at 2 MPH (2 knots; 1.0 m/s)
Visibility: 4 miles ( 6 km)
Ceiling: 4200 feet AGL
Clouds: few clouds at 1600 feet AGL
scattered clouds at 2500 feet AGL
broken clouds at 4200 feet AGL
Weather: SHRA  (rain showers)

METAR text: LEBB 200900Z 00000KT 9999 FEW016 SCT025TCU BKN042 08/07 Q1014 TEMPO 3000 SHRA BKN020TCU
Conditions at: LEBB (BILBAO/SONDICA , ES) observed 0900 UTC 20 January 2019
Temperature: 8.0°C (46°F)
Dewpoint: 7.0°C (45°F) [RH = 93%]
Pressure (altimeter): 29.94 inches Hg (1014.0 mb)
Winds: calm
Visibility: 6 or more miles (10+ km)
Ceiling: 4200 feet AGL
Clouds: few clouds at 1600 feet AGL
scattered clouds at 2500 feet AGL
broken clouds at 4200 feet AGL
Weather: no significant weather observed at this time

METAR text: LEBB 200852Z VRB01KT 9999 -SHRA FEW020TCU SCT035 BKN045 08/07 Q1014 TEMPO 3000 SHRA BKN020TCU
Conditions at: LEBB (BILBAO/SONDICA , ES) observed 0852 UTC 20 January 2019
Temperature: 8.0°C (46°F)
Dewpoint: 7.0°C (45°F) [RH = 93%]
Pressure (altimeter): 29.94 inches Hg (1014.0 mb)
Winds: variable direction winds at 1 MPH (1 knots; 0.5 m/s)
Visibility: 6 or more miles (10+ km)
Ceiling: 4500 feet AGL
Clouds: few clouds at 2000 feet AGL
scattered clouds at 3500 feet AGL
broken clouds at 4500 feet AGL
Weather: -SHRA  (light rain showers)

METAR text: LEBB 200830Z 35005G16KT 260V040 6000 SHRA SCT025TCU SCT035 BKN050 08/07 Q1014 TEMPO 3000 SHRA BKN020TCU
Conditions at: LEBB (BILBAO/SONDICA , ES) observed 0830 UTC 20 January 2019
Temperature: 8.0°C (46°F)
Dewpoint: 7.0°C (45°F) [RH = 93%]
Pressure (altimeter): 29.94 inches Hg (1014.0 mb)
Winds: from the N (350 degrees) at 6 MPH (5 knots; 2.6 m/s)
gusting to 18 MPH (16 knots; 8.2 m/s)
Visibility: 4 miles ( 6 km)
Ceiling: 5000 feet AGL
Clouds: scattered clouds at 2500 feet AGL
scattered clouds at 3500 feet AGL
broken clouds at 5000 feet AGL
Weather: SHRA  (rain showers)

METAR text: LEBB 200816Z VRB02KT 3000 SHRA SCT025TCU BKN050 08/07 Q1014 NOSIG
Conditions at: LEBB (BILBAO/SONDICA , ES) observed 0816 UTC 20 January 2019
Temperature: 8.0°C (46°F)
Dewpoint: 7.0°C (45°F) [RH = 93%]
Pressure (altimeter): 29.94 inches Hg (1014.0 mb)
Winds: variable direction winds at 2 MPH (2 knots; 1.0 m/s)
Visibility: 1.86 miles (2.99 km)
Ceiling: 5000 feet AGL
Clouds: scattered clouds at 2500 feet AGL
broken clouds at 5000 feet AGL
Weather: SHRA  (rain showers)

METAR text: LEBB 200800Z 27005KT 240V300 9999 FEW020TCU SCT035 07/06 Q1014 TEMPO 3000 SHRA BKN020TCU
Conditions at: LEBB (BILBAO/SONDICA , ES) observed 0800 UTC 20 January 2019
Temperature: 7.0°C (45°F)
Dewpoint: 6.0°C (43°F) [RH = 93%]
Pressure (altimeter): 29.94 inches Hg (1014.0 mb)
Winds: from the W (270 degrees) at 6 MPH (5 knots; 2.6 m/s)
Visibility: 6 or more miles (10+ km)
Ceiling: at least 12,000 feet AGL
Clouds: few clouds at 2000 feet AGL
scattered clouds at 3500 feet AGL
Weather: no significant weather observed at this time

METAR text: LEBB 200730Z 35007KT 320V020 8000 -SHRA FEW017 SCT025TCU BKN035 08/06 Q1013 TEMPO 3000 SHRA BKN020TCU
Conditions at: LEBB (BILBAO/SONDICA , ES) observed 0730 UTC 20 January 2019
Temperature: 8.0°C (46°F)
Dewpoint: 6.0°C (43°F) [RH = 87%]
Pressure (altimeter): 29.91 inches Hg (1013.0 mb)
Winds: from the N (350 degrees) at 8 MPH (7 knots; 3.6 m/s)
Visibility: 5 miles ( 8 km)
Ceiling: 3500 feet AGL
Clouds: few clouds at 1700 feet AGL
scattered clouds at 2500 feet AGL
broken clouds at 3500 feet AGL
Weather: -SHRA  (light rain showers)

METAR text: LEBB 200704Z 32020G30KT 280V350 8000 SHRA SCT017 SCT025TCU BKN070 08/06 Q1013 TEMPO 3000 SHRA BKN020TCU
Conditions at: LEBB (BILBAO/SONDICA , ES) observed 0704 UTC 20 January 2019
Temperature: 8.0°C (46°F)
Dewpoint: 6.0°C (43°F) [RH = 87%]
Pressure (altimeter): 29.91 inches Hg (1013.0 mb)
Winds: from the NW (320 degrees) at 23 MPH (20 knots; 10.3 m/s)
gusting to 34 MPH (30 knots; 15.4 m/s)
Visibility: 5 miles ( 8 km)
Ceiling: 7000 feet AGL
Clouds: scattered clouds at 1700 feet AGL
scattered clouds at 2500 feet AGL
broken clouds at 7000 feet AGL
Weather: SHRA  (rain showers)

METAR text: LEBB 200700Z 32005KT 290V350 9999 SCT025 SCT065 09/07 Q1013 TEMPO 3000 SHRA BKN020TCU
Conditions at: LEBB (BILBAO/SONDICA , ES) observed 0700 UTC 20 January 2019
Temperature: 9.0°C (48°F)
Dewpoint: 7.0°C (45°F) [RH = 87%]
Pressure (altimeter): 29.91 inches Hg (1013.0 mb)
Winds: from the NW (320 degrees) at 6 MPH (5 knots; 2.6 m/s)
Visibility: 6 or more miles (10+ km)
Ceiling: at least 12,000 feet AGL
Clouds: scattered clouds at 2500 feet AGL
scattered clouds at 6500 feet AGL
Weather: no significant weather observed at this time

METAR text: LEBB 200630Z 00000KT 9999 SCT022 SCT035 BKN065 07/06 Q1012 TEMPO 32010KT SHRA SCT025TCU
Conditions at: LEBB (BILBAO/SONDICA , ES) observed 0630 UTC 20 January 2019
Temperature: 7.0°C (45°F)
Dewpoint: 6.0°C (43°F) [RH = 93%]
Pressure (altimeter): 29.88 inches Hg (1012.0 mb)
Winds: calm
Visibility: 6 or more miles (10+ km)
Ceiling: 6500 feet AGL
Clouds: scattered clouds at 2200 feet AGL
scattered clouds at 3500 feet AGL
broken clouds at 6500 feet AGL
Weather: no significant weather observed at this time

METAR text: LEBB 200600Z 08004KT 050V120 9999 SCT022 BKN035 06/06 Q1012 TEMPO 32010KT SHRA SCT025TCU
Conditions at: LEBB (BILBAO/SONDICA , ES) observed 0600 UTC 20 January 2019
Temperature: 6.0°C (43°F)
Dewpoint: 6.0°C (43°F) [RH = 100%]
Pressure (altimeter): 29.88 inches Hg (1012.0 mb)
Winds: from the E (80 degrees) at 5 MPH (4 knots; 2.1 m/s)
Visibility: 6 or more miles (10+ km)
Ceiling: 3500 feet AGL
Clouds: scattered clouds at 2200 feet AGL
broken clouds at 3500 feet AGL
Weather: no significant weather observed at this time

METAR text: LEBB 200530Z 15003KT 090V170 9999 SCT030 BKN045 06/06 Q1012 TEMPO 32010KT SHRA SCT025TCU
Conditions at: LEBB (BILBAO/SONDICA , ES) observed 0530 UTC 20 January 2019
Temperature: 6.0°C (43°F)
Dewpoint: 6.0°C (43°F) [RH = 100%]
Pressure (altimeter): 29.88 inches Hg (1012.0 mb)
Winds: from the SSE (150 degrees) at 3 MPH (3 knots; 1.5 m/s)
Visibility: 6 or more miles (10+ km)
Ceiling: 4500 feet AGL
Clouds: scattered clouds at 3000 feet AGL
broken clouds at 4500 feet AGL
Weather: no significant weather observed at this time

METAR text: LEBB 200500Z 07004KT 9999 SCT030 BKN045 07/07 Q1011 TEMPO RA
Conditions at: LEBB (BILBAO/SONDICA , ES) observed 0500 UTC 20 January 2019
Temperature: 7.0°C (45°F)
Dewpoint: 7.0°C (45°F) [RH = 100%]
Pressure (altimeter): 29.85 inches Hg (1011.0 mb)
Winds: from the ENE (70 degrees) at 5 MPH (4 knots; 2.1 m/s)
Visibility: 6 or more miles (10+ km)
Ceiling: 4500 feet AGL
Clouds: scattered clouds at 3000 feet AGL
broken clouds at 4500 feet AGL
Weather: no significant weather observed at this time

METAR text: LEBB 200430Z VRB01KT 9999 -RA SCT030 BKN045 07/07 Q1011 TEMPO RA
Conditions at: LEBB (BILBAO/SONDICA , ES) observed 0430 UTC 20 January 2019
Temperature: 7.0°C (45°F)
Dewpoint: 7.0°C (45°F) [RH = 100%]
Pressure (altimeter): 29.85 inches Hg (1011.0 mb)
Winds: variable direction winds at 1 MPH (1 knots; 0.5 m/s)
Visibility: 6 or more miles (10+ km)
Ceiling: 4500 feet AGL
Clouds: scattered clouds at 3000 feet AGL
broken clouds at 4500 feet AGL
Weather: -RA  (light rain)

METAR text: LEBB 200400Z VRB01KT 9999 -RA FEW014 BKN020 BKN045 08/06 Q1011 TEMPO RA
Conditions at: LEBB (BILBAO/SONDICA , ES) observed 0400 UTC 20 January 2019
Temperature: 8.0°C (46°F)
Dewpoint: 6.0°C (43°F) [RH = 87%]
Pressure (altimeter): 29.85 inches Hg (1011.0 mb)
Winds: variable direction winds at 1 MPH (1 knots; 0.5 m/s)
Visibility: 6 or more miles (10+ km)
Ceiling: 2000 feet AGL
Clouds: few clouds at 1400 feet AGL
broken clouds at 2000 feet AGL
broken clouds at 4500 feet AGL
Weather: -RA  (light rain)

METAR text: LEBB 200330Z AUTO 09004KT 9999 SCT026/// SCT047/// BKN069/// 08/06 Q1011
Conditions at: LEBB (BILBAO/SONDICA , ES) observed 0330 UTC 20 January 2019
Temperature: 8.0°C (46°F)
Dewpoint: 6.0°C (43°F) [RH = 87%]
Pressure (altimeter): 29.85 inches Hg (1011.0 mb)
Winds: from the E (90 degrees) at 5 MPH (4 knots; 2.1 m/s)
Visibility: 6 or more miles (10+ km)
Ceiling: 6900 feet AGL
Clouds: scattered clouds at 2600 feet AGL
scattered clouds at 4700 feet AGL
broken clouds at 6900 feet AGL
Weather: no significant weather observed at this time

METAR text: LEBB 200300Z AUTO 11003KT 070V150 9999 SCT019/// SCT034/// BKN070/// 08/06 Q1011
Conditions at: LEBB (BILBAO/SONDICA , ES) observed 0300 UTC 20 January 2019
Temperature: 8.0°C (46°F)
Dewpoint: 6.0°C (43°F) [RH = 87%]
Pressure (altimeter): 29.85 inches Hg (1011.0 mb)
Winds: from the ESE (110 degrees) at 3 MPH (3 knots; 1.5 m/s)
Visibility: 6 or more miles (10+ km)
Ceiling: 7000 feet AGL
Clouds: scattered clouds at 1900 feet AGL
scattered clouds at 3400 feet AGL
broken clouds at 7000 feet AGL
Weather: no significant weather observed at this time

METAR text: LEBB 200230Z AUTO 09004KT 070V150 9999 SCT020/// BKN029/// 08/06 Q1011
Conditions at: LEBB (BILBAO/SONDICA , ES) observed 0230 UTC 20 January 2019
Temperature: 8.0°C (46°F)
Dewpoint: 6.0°C (43°F) [RH = 87%]
Pressure (altimeter): 29.85 inches Hg (1011.0 mb)
Winds: from the E (90 degrees) at 5 MPH (4 knots; 2.1 m/s)
Visibility: 6 or more miles (10+ km)
Ceiling: 2900 feet AGL
Clouds: scattered clouds at 2000 feet AGL
broken clouds at 2900 feet AGL
Weather: no significant weather observed at this time

METAR text: LEBB 200200Z AUTO 10003KT 080V140 9999 BKN023/// 08/05 Q1010
Conditions at: LEBB (BILBAO/SONDICA , ES) observed 0200 UTC 20 January 2019
Temperature: 8.0°C (46°F)
Dewpoint: 5.0°C (41°F) [RH = 81%]
Pressure (altimeter): 29.82 inches Hg (1010.0 mb)
Winds: from the E (100 degrees) at 3 MPH (3 knots; 1.5 m/s)
Visibility: 6 or more miles (10+ km)
Ceiling: 2300 feet AGL
Clouds: broken clouds at 2300 feet AGL
Weather: no significant weather observed at this time

METAR text: LEBB 200130Z AUTO 00000KT 9999 SCT024/// BKN034/// BKN048/// 08/06 Q1010
Conditions at: LEBB (BILBAO/SONDICA , ES) observed 0130 UTC 20 January 2019
Temperature: 8.0°C (46°F)
Dewpoint: 6.0°C (43°F) [RH = 87%]
Pressure (altimeter): 29.82 inches Hg (1010.0 mb)
Winds: calm
Visibility: 6 or more miles (10+ km)
Ceiling: 3400 feet AGL
Clouds: scattered clouds at 2400 feet AGL
broken clouds at 3400 feet AGL
broken clouds at 4800 feet AGL
Weather: no significant weather observed at this time

METAR text: LEBB 200100Z AUTO 00000KT 9999 SCT035/// SCT042/// BKN050/// 08/05 Q1010
Conditions at: LEBB (BILBAO/SONDICA , ES) observed 0100 UTC 20 January 2019
Temperature: 8.0°C (46°F)
Dewpoint: 5.0°C (41°F) [RH = 81%]
Pressure (altimeter): 29.82 inches Hg (1010.0 mb)
Winds: calm
Visibility: 6 or more miles (10+ km)
Ceiling: 5000 feet AGL
Clouds: scattered clouds at 3500 feet AGL
scattered clouds at 4200 feet AGL
broken clouds at 5000 feet AGL
Weather: no significant weather observed at this time

METAR text: LEBB 200030Z AUTO 00000KT 9999 BKN023/// BKN028/// 09/05 Q1010
Conditions at: LEBB (BILBAO/SONDICA , ES) observed 0030 UTC 20 January 2019
Temperature: 9.0°C (48°F)
Dewpoint: 5.0°C (41°F) [RH = 76%]
Pressure (altimeter): 29.82 inches Hg (1010.0 mb)
Winds: calm
Visibility: 6 or more miles (10+ km)
Ceiling: 2300 feet AGL
Clouds: broken clouds at 2300 feet AGL
broken clouds at 2800 feet AGL
Weather: no significant weather observed at this time

METAR text: LEBB 200000Z AUTO 00000KT 9999 SCT028/// BKN040/// 09/04 Q1009
Conditions at: LEBB (BILBAO/SONDICA , ES) observed 0000 UTC 20 January 2019
Temperature: 9.0°C (48°F)
Dewpoint: 4.0°C (39°F) [RH = 71%]
Pressure (altimeter): 29.79 inches Hg (1009.0 mb)
Winds: calm
Visibility: 6 or more miles (10+ km)
Ceiling: 4000 feet AGL
Clouds: scattered clouds at 2800 feet AGL
broken clouds at 4000 feet AGL
Weather: no significant weather observed at this time

METAR text: LEBB 192330Z AUTO VRB02KT 9999 FEW030/// BKN039/// 09/04 Q1009
Conditions at: LEBB (BILBAO/SONDICA , ES) observed 2330 UTC 19 January 2019
Temperature: 9.0°C (48°F)
Dewpoint: 4.0°C (39°F) [RH = 71%]
Pressure (altimeter): 29.79 inches Hg (1009.0 mb)
Winds: variable direction winds at 2 MPH (2 knots; 1.0 m/s)
Visibility: 6 or more miles (10+ km)
Ceiling: 3900 feet AGL
Clouds: few clouds at 3000 feet AGL
broken clouds at 3900 feet AGL
Weather: no significant weather observed at this time

METAR text: LEBB 192300Z AUTO VRB01KT 9999 OVC039/// 09/04 Q1009
Conditions at: LEBB (BILBAO/SONDICA , ES) observed 2300 UTC 19 January 2019
Temperature: 9.0°C (48°F)
Dewpoint: 4.0°C (39°F) [RH = 71%]
Pressure (altimeter): 29.79 inches Hg (1009.0 mb)
Winds: variable direction winds at 1 MPH (1 knots; 0.5 m/s)
Visibility: 6 or more miles (10+ km)
Ceiling: 3900 feet AGL
Clouds: overcast cloud deck at 3900 feet AGL
Weather: no significant weather observed at this time

METAR text: LEBB 192230Z VRB02KT 9999 BKN039 09/04 Q1008 NOSIG
Conditions at: LEBB (BILBAO/SONDICA , ES) observed 2230 UTC 19 January 2019
Temperature: 9.0°C (48°F)
Dewpoint: 4.0°C (39°F) [RH = 71%]
Pressure (altimeter): 29.76 inches Hg (1008.0 mb)
Winds: variable direction winds at 2 MPH (2 knots; 1.0 m/s)
Visibility: 6 or more miles (10+ km)
Ceiling: 3900 feet AGL
Clouds: broken clouds at 3900 feet AGL
Weather: no significant weather observed at this time

METAR text: LEBB 192200Z VRB01KT 9999 SCT038 BKN060 09/04 Q1008 NOSIG
Conditions at: LEBB (BILBAO/SONDICA , ES) observed 2200 UTC 19 January 2019
Temperature: 9.0°C (48°F)
Dewpoint: 4.0°C (39°F) [RH = 71%]
Pressure (altimeter): 29.76 inches Hg (1008.0 mb)
Winds: variable direction winds at 1 MPH (1 knots; 0.5 m/s)
Visibility: 6 or more miles (10+ km)
Ceiling: 6000 feet AGL
Clouds: scattered clouds at 3800 feet AGL
broken clouds at 6000 feet AGL
Weather: no significant weather observed at this time

METAR text: LEBB 192130Z VRB02KT 9999 BKN066 09/04 Q1008 NOSIG
Conditions at: LEBB (BILBAO/SONDICA , ES) observed 2130 UTC 19 January 2019
Temperature: 9.0°C (48°F)
Dewpoint: 4.0°C (39°F) [RH = 71%]
Pressure (altimeter): 29.76 inches Hg (1008.0 mb)
Winds: variable direction winds at 2 MPH (2 knots; 1.0 m/s)
Visibility: 6 or more miles (10+ km)
Ceiling: 6600 feet AGL
Clouds: broken clouds at 6600 feet AGL
Weather: no significant weather observed at this time

METAR text: LEBB 192100Z VRB01KT 9999 FEW050 SCT067 09/04 Q1008 NOSIG
Conditions at: LEBB (BILBAO/SONDICA , ES) observed 2100 UTC 19 January 2019
Temperature: 9.0°C (48°F)
Dewpoint: 4.0°C (39°F) [RH = 71%]
Pressure (altimeter): 29.76 inches Hg (1008.0 mb)
Winds: variable direction winds at 1 MPH (1 knots; 0.5 m/s)
Visibility: 6 or more miles (10+ km)
Ceiling: at least 12,000 feet AGL
Clouds: few clouds at 5000 feet AGL
scattered clouds at 6700 feet AGL
Weather: no significant weather observed at this time

METAR text: LEBB 192030Z VRB04KT 9999 BKN050 09/04 Q1007 NOSIG
Conditions at: LEBB (BILBAO/SONDICA , ES) observed 2030 UTC 19 January 2019
Temperature: 9.0°C (48°F)
Dewpoint: 4.0°C (39°F) [RH = 71%]
Pressure (altimeter): 29.73 inches Hg (1007.0 mb)
Winds: variable direction winds at 5 MPH (4 knots; 2.1 m/s)
Visibility: 6 or more miles (10+ km)
Ceiling: 5000 feet AGL
Clouds: broken clouds at 5000 feet AGL
Weather: no significant weather observed at this time

METAR text: LEBB 192000Z 21004KT 140V260 9999 BKN049 09/04 Q1007 NOSIG
Conditions at: LEBB (BILBAO/SONDICA , ES) observed 2000 UTC 19 January 2019
Temperature: 9.0°C (48°F)
Dewpoint: 4.0°C (39°F) [RH = 71%]
Pressure (altimeter): 29.73 inches Hg (1007.0 mb)
Winds: from the SSW (210 degrees) at 5 MPH (4 knots; 2.1 m/s)
Visibility: 6 or more miles (10+ km)
Ceiling: 4900 feet AGL
Clouds: broken clouds at 4900 feet AGL
Weather: no significant weather observed at this time

METAR text: LEBB 191930Z 20005KT 150V280 9999 -RA SCT050 BKN067 09/04 Q1007 NOSIG
Conditions at: LEBB (BILBAO/SONDICA , ES) observed 1930 UTC 19 January 2019
Temperature: 9.0°C (48°F)
Dewpoint: 4.0°C (39°F) [RH = 71%]
Pressure (altimeter): 29.73 inches Hg (1007.0 mb)
Winds: from the SSW (200 degrees) at 6 MPH (5 knots; 2.6 m/s)
Visibility: 6 or more miles (10+ km)
Ceiling: 6700 feet AGL
Clouds: scattered clouds at 5000 feet AGL
broken clouds at 6700 feet AGL
Weather: -RA  (light rain)

METAR text: LEBB 191900Z 20004KT 140V270 9999 SCT050 BKN067 09/04 Q1007 NOSIG
Conditions at: LEBB (BILBAO/SONDICA , ES) observed 1900 UTC 19 January 2019
Temperature: 9.0°C (48°F)
Dewpoint: 4.0°C (39°F) [RH = 71%]
Pressure (altimeter): 29.73 inches Hg (1007.0 mb)
Winds: from the SSW (200 degrees) at 5 MPH (4 knots; 2.1 m/s)
Visibility: 6 or more miles (10+ km)
Ceiling: 6700 feet AGL
Clouds: scattered clouds at 5000 feet AGL
broken clouds at 6700 feet AGL
Weather: no significant weather observed at this time

METAR text: LEBB 191830Z 20005KT 140V270 9999 FEW060 10/03 Q1007 NOSIG
Conditions at: LEBB (BILBAO/SONDICA , ES) observed 1830 UTC 19 January 2019
Temperature: 10.0°C (50°F)
Dewpoint: 3.0°C (37°F) [RH = 62%]
Pressure (altimeter): 29.73 inches Hg (1007.0 mb)
Winds: from the SSW (200 degrees) at 6 MPH (5 knots; 2.6 m/s)
Visibility: 6 or more miles (10+ km)
Ceiling: at least 12,000 feet AGL
Clouds: few clouds at 6000 feet AGL
Weather: no significant weather observed at this time

METAR text: LEBB 191800Z 20005KT 140V250 9999 FEW060 10/03 Q1007 NOSIG
Conditions at: LEBB (BILBAO/SONDICA , ES) observed 1800 UTC 19 January 2019
Temperature: 10.0°C (50°F)
Dewpoint: 3.0°C (37°F) [RH = 62%]
Pressure (altimeter): 29.73 inches Hg (1007.0 mb)
Winds: from the SSW (200 degrees) at 6 MPH (5 knots; 2.6 m/s)
Visibility: 6 or more miles (10+ km)
Ceiling: at least 12,000 feet AGL
Clouds: few clouds at 6000 feet AGL
Weather: no significant weather observed at this time

METAR text: LEBB 191730Z 19008KT 120V240 9999 FEW060 10/04 Q1007 NOSIG
Conditions at: LEBB (BILBAO/SONDICA , ES) observed 1730 UTC 19 January 2019
Temperature: 10.0°C (50°F)
Dewpoint: 4.0°C (39°F) [RH = 66%]
Pressure (altimeter): 29.73 inches Hg (1007.0 mb)
Winds: from the S (190 degrees) at 9 MPH (8 knots; 4.1 m/s)
Visibility: 6 or more miles (10+ km)
Ceiling: at least 12,000 feet AGL
Clouds: few clouds at 6000 feet AGL
Weather: no significant weather observed at this time

METAR text: LEBB 191700Z 19006KT 130V240 9999 FEW060 10/04 Q1007 NOSIG
Conditions at: LEBB (BILBAO/SONDICA , ES) observed 1700 UTC 19 January 2019
Temperature: 10.0°C (50°F)
Dewpoint: 4.0°C (39°F) [RH = 66%]
Pressure (altimeter): 29.73 inches Hg (1007.0 mb)
Winds: from the S (190 degrees) at 7 MPH (6 knots; 3.1 m/s)
Visibility: 6 or more miles (10+ km)
Ceiling: at least 12,000 feet AGL
Clouds: few clouds at 6000 feet AGL
Weather: no significant weather observed at this time

METAR text: LEBB 191630Z 19008KT 150V250 9999 FEW035 SCT060 10/04 Q1008 NOSIG
Conditions at: LEBB (BILBAO/SONDICA , ES) observed 1630 UTC 19 January 2019
Temperature: 10.0°C (50°F)
Dewpoint: 4.0°C (39°F) [RH = 66%]
Pressure (altimeter): 29.76 inches Hg (1008.0 mb)
Winds: from the S (190 degrees) at 9 MPH (8 knots; 4.1 m/s)
Visibility: 6 or more miles (10+ km)
Ceiling: at least 12,000 feet AGL
Clouds: few clouds at 3500 feet AGL
scattered clouds at 6000 feet AGL
Weather: no significant weather observed at this time

METAR text: LEBB 191600Z 21008KT 160V260 9999 FEW060 11/03 Q1008 NOSIG
Conditions at: LEBB (BILBAO/SONDICA , ES) observed 1600 UTC 19 January 2019
Temperature: 11.0°C (52°F)
Dewpoint: 3.0°C (37°F) [RH = 58%]
Pressure (altimeter): 29.76 inches Hg (1008.0 mb)
Winds: from the SSW (210 degrees) at 9 MPH (8 knots; 4.1 m/s)
Visibility: 6 or more miles (10+ km)
Ceiling: at least 12,000 feet AGL
Clouds: few clouds at 6000 feet AGL
Weather: no significant weather observed at this time

METAR text: LEBB 191530Z 20005KT 160V260 9999 FEW060 11/04 Q1008 NOSIG
Conditions at: LEBB (BILBAO/SONDICA , ES) observed 1530 UTC 19 January 2019
Temperature: 11.0°C (52°F)
Dewpoint: 4.0°C (39°F) [RH = 62%]
Pressure (altimeter): 29.76 inches Hg (1008.0 mb)
Winds: from the SSW (200 degrees) at 6 MPH (5 knots; 2.6 m/s)
Visibility: 6 or more miles (10+ km)
Ceiling: at least 12,000 feet AGL
Clouds: few clouds at 6000 feet AGL
Weather: no significant weather observed at this time

METAR text: LEBB 191500Z 22007KT 160V330 9999 FEW055 11/04 Q1009 NOSIG
Conditions at: LEBB (BILBAO/SONDICA , ES) observed 1500 UTC 19 January 2019
Temperature: 11.0°C (52°F)
Dewpoint: 4.0°C (39°F) [RH = 62%]
Pressure (altimeter): 29.79 inches Hg (1009.0 mb)
Winds: from the SW (220 degrees) at 8 MPH (7 knots; 3.6 m/s)
Visibility: 6 or more miles (10+ km)
Ceiling: at least 12,000 feet AGL
Clouds: few clouds at 5500 feet AGL
Weather: no significant weather observed at this time

METAR text: LEBB 191430Z 20005KT 150V250 9999 FEW040 11/04 Q1009 NOSIG
Conditions at: LEBB (BILBAO/SONDICA , ES) observed 1430 UTC 19 January 2019
Temperature: 11.0°C (52°F)
Dewpoint: 4.0°C (39°F) [RH = 62%]
Pressure (altimeter): 29.79 inches Hg (1009.0 mb)
Winds: from the SSW (200 degrees) at 6 MPH (5 knots; 2.6 m/s)
Visibility: 6 or more miles (10+ km)
Ceiling: at least 12,000 feet AGL
Clouds: few clouds at 4000 feet AGL
Weather: no significant weather observed at this time

METAR text: LEBB 191400Z 22005KT 160V300 9999 FEW040 11/04 Q1009 NOSIG
Conditions at: LEBB (BILBAO/SONDICA , ES) observed 1400 UTC 19 January 2019
Temperature: 11.0°C (52°F)
Dewpoint: 4.0°C (39°F) [RH = 62%]
Pressure (altimeter): 29.79 inches Hg (1009.0 mb)
Winds: from the SW (220 degrees) at 6 MPH (5 knots; 2.6 m/s)
Visibility: 6 or more miles (10+ km)
Ceiling: at least 12,000 feet AGL
Clouds: few clouds at 4000 feet AGL
Weather: no significant weather observed at this time

METAR text: LEBB 191330Z 20007KT 150V260 9999 FEW040 11/04 Q1010 NOSIG
Conditions at: LEBB (BILBAO/SONDICA , ES) observed 1330 UTC 19 January 2019
Temperature: 11.0°C (52°F)
Dewpoint: 4.0°C (39°F) [RH = 62%]
Pressure (altimeter): 29.82 inches Hg (1010.0 mb)
Winds: from the SSW (200 degrees) at 8 MPH (7 knots; 3.6 m/s)
Visibility: 6 or more miles (10+ km)
Ceiling: at least 12,000 feet AGL
Clouds: few clouds at 4000 feet AGL
Weather: no significant weather observed at this time

METAR text: LEBB 191300Z 21010KT 170V260 9999 FEW040 11/04 Q1010 NOSIG
Conditions at: LEBB (BILBAO/SONDICA , ES) observed 1300 UTC 19 January 2019
Temperature: 11.0°C (52°F)
Dewpoint: 4.0°C (39°F) [RH = 62%]
Pressure (altimeter): 29.82 inches Hg (1010.0 mb)
Winds: from the SSW (210 degrees) at 12 MPH (10 knots; 5.1 m/s)
Visibility: 6 or more miles (10+ km)
Ceiling: at least 12,000 feet AGL
Clouds: few clouds at 4000 feet AGL
Weather: no significant weather observed at this time

METAR text: LEBB 191230Z 22009KT 160V290 9999 FEW040 12/04 Q1011 NOSIG
Conditions at: LEBB (BILBAO/SONDICA , ES) observed 1230 UTC 19 January 2019
Temperature: 12.0°C (54°F)
Dewpoint: 4.0°C (39°F) [RH = 58%]
Pressure (altimeter): 29.85 inches Hg (1011.0 mb)
Winds: from the SW (220 degrees) at 10 MPH (9 knots; 4.6 m/s)
Visibility: 6 or more miles (10+ km)
Ceiling: at least 12,000 feet AGL
Clouds: few clouds at 4000 feet AGL
Weather: no significant weather observed at this time

METAR text: LEBB 191200Z 21007KT 140V260 9999 FEW040 11/04 Q1012 NOSIG
Conditions at: LEBB (BILBAO/SONDICA , ES) observed 1200 UTC 19 January 2019
Temperature: 11.0°C (52°F)
Dewpoint: 4.0°C (39°F) [RH = 62%]
Pressure (altimeter): 29.88 inches Hg (1012.0 mb)
Winds: from the SSW (210 degrees) at 8 MPH (7 knots; 3.6 m/s)
Visibility: 6 or more miles (10+ km)
Ceiling: at least 12,000 feet AGL
Clouds: few clouds at 4000 feet AGL
Weather: no significant weather observed at this time

METAR text: LEBB 191130Z 22005KT 160V300 9999 FEW040 11/04 Q1013 NOSIG
Conditions at: LEBB (BILBAO/SONDICA , ES) observed 1130 UTC 19 January 2019
Temperature: 11.0°C (52°F)
Dewpoint: 4.0°C (39°F) [RH = 62%]
Pressure (altimeter): 29.91 inches Hg (1013.0 mb)
Winds: from the SW (220 degrees) at 6 MPH (5 knots; 2.6 m/s)
Visibility: 6 or more miles (10+ km)
Ceiling: at least 12,000 feet AGL
Clouds: few clouds at 4000 feet AGL
Weather: no significant weather observed at this time

Forecast for: LEBB (BILBAO/SONDICA , ES)
Text: TAF LEBB 201700Z 2018/2118 34009KT 9999 SCT025 BKN040 TX09/2113Z TN04/2106Z
Forecast period: 1800 UTC 20 January 2019 to 1800 UTC 21 January 2019
Forecast type: FROM: standard forecast or significant change
Winds: from the NNW (340 degrees) at 10 MPH (9 knots; 4.6 m/s)
Visibility: 6 or more miles 10+ km)
Ceiling: 4000 feet AGL
Clouds: scattered clouds at 2500 feet AGL
broken clouds at 4000 feet AGL
Weather: no significant weather forecast for this period
Text: TEMPO 2018/2112 3000 SHRA BKN010 SCT025TCU
Forecast period: 1800 UTC 20 January 2019 to 1200 UTC 21 January 2019
Forecast type: TEMPORARY: The following changes expected for less than half the time period
Visibility: 1.86 miles (2.99 km)
Ceiling: 1000 feet AGL
Clouds: broken clouds at 1000 feet AGL
scattered clouds at 2500 feet AGL
Weather: SHRA  (rain showers)
Text: PROB30
Forecast period: 1800 UTC 20 January 2019 to 0900 UTC 21 January 2019
Forecast type: TEMPORARY: The following changes expected for less than half the time period
Winds: from the NW (320 degrees) at 17 MPH (15 knots; 7.7 m/s)
gusting to 29 MPH (25 knots; 12.9 m/s)
Visibility: 1.86 miles (2.99 km)
Ceiling: 1000 feet AGL
Clouds: broken clouds at 1000 feet AGL
scattered clouds at 2500 feet AGL
Weather: TS SHRA SHGR  (thunderstorm, rain showers, hail showers)